Time;durP1;ratioP1;P1;durP2;ratioP2;P2;SDS_P1;SDS_P2;PMS_P1;PMS_P2;Temp;Humidity;BMP_temperature;BMP_pressure;BME280_temperature;BME280_humidity;BME280_pressure;Samples;Min_cycle;Max_cycle;Signal;HPM_P1;HPM_P2
2023/03/23 00:01:36;;;;;;;9.82;4.70;;;;;;;11.37;83.61;100315.69;6070016;19;20003;-76
2023/03/23 00:04:06;;;;;;;10.48;4.10;;;;;;;11.39;83.14;100309.41;6089072;19;20017;-77
2023/03/23 00:12:04;;;;;;;7.57;4.10;;;;;;;11.42;82.93;100308.41;6022803;19;19998;-76
2023/03/23 00:14:53;;;;;;;9.90;4.53;;;;;;;11.42;82.89;100306.59;5859994;19;20319;-75
2023/03/23 00:17:10;;;;;;;8.73;4.25;;;;;;;11.35;83.63;100304.41;5993927;19;20110;-76
2023/03/23 00:19:52;;;;;;;8.73;4.30;;;;;;;11.29;83.51;100291.56;6004550;19;20022;-76
2023/03/23 00:22:26;;;;;;;;;;;;;;;;;;;;;
2023/03/23 00:24:43;;;;;;;9.55;4.10;;;;;;;11.38;83.06;100293.72;5933110;19;20039;-75
2023/03/23 00:27:12;;;;;;;10.32;3.92;;;;;;;11.35;83.34;100291.25;6024731;19;20014;-75
2023/03/23 00:30:02;;;;;;;;;;;;;;;;;;;;;
2023/03/23 00:32:30;;;;;;;8.73;3.85;;;;;;;11.41;82.43;100285.66;6019344;19;20778;-76
2023/03/23 00:34:58;;;;;;;9.57;4.38;;;;;;;11.36;82.95;100280.63;6013935;19;20106;-76
2023/03/23 00:37:35;;;;;;;8.23;3.97;;;;;;;11.36;82.83;100288.53;6070467;19;20325;-76
2023/03/23 00:39:57;;;;;;;10.13;4.05;;;;;;;11.35;82.61;100280.75;6037040;19;20010;-76
2023/03/23 00:42:22;;;;;;;;;;;;;;;11.31;82.88;100268.66;6044728;19;20662;-76
2023/03/23 00:44:45;;;;;;;10.40;3.75;;;;;;;11.33;82.72;100272.06;5962208;19;19923;-76
2023/03/23 00:47:22;;;;;;;7.50;3.40;;;;;;;11.30;82.95;100269.59;5982966;19;20013;-76
2023/03/23 00:49:34;;;;;;;9.25;3.80;;;;;;;11.33;82.87;100266.81;6008510;19;20239;-76
2023/03/23 00:52:04;;;;;;;8.63;3.92;;;;;;;11.27;83.23;100267.09;6024010;19;20034;-76
2023/03/23 00:54:30;;;;;;;7.50;3.67;;;;;;;11.28;82.97;100274.09;5992414;19;20696;-75
2023/03/23 00:57:18;;;;;;;;;;;;;;;;;;;;;
2023/03/23 00:59:46;;;;;;;7.55;4.22;;;;;;;11.24;82.92;100281.28;5979476;19;20118;-76
2023/03/23 01:02:25;;;;;;;8.23;3.88;;;;;;;11.27;83.05;100283.75;6047111;19;20014;-76
2023/03/23 01:04:58;;;;;;;10.00;3.80;;;;;;;11.34;82.48;100285.13;6043052;19;20029;-76
2023/03/23 01:07:40;;;;;;;6.38;2.95;;;;;;;11.29;82.66;100260.00;6058600;19;20027;-76
2023/03/23 01:10:12;;;;;;;7.00;3.15;;;;;;;11.27;83.07;100267.09;6009314;19;20641;-76
2023/03/23 01:15:12;;;;;;;8.70;3.78;;;;;;;11.24;82.95;100243.59;6052356;19;20012;-76
2023/03/23 01:17:29;;;;;;;6.90;3.60;;;;;;;11.25;82.57;100233.00;6055746;19;20031;-76
2023/03/23 01:19:56;;;;;;;6.90;3.17;;;;;;;11.28;82.48;100243.38;6025372;19;20239;-76
2023/03/23 01:22:07;;;;;;;10.27;3.65;;;;;;;11.30;82.59;100243.31;6027175;19;20070;-76
2023/03/23 01:24:36;;;;;;;9.95;3.70;;;;;;;11.30;82.43;100233.63;6046426;19;20595;-76
2023/03/23 01:27:08;;;;;;;;;;;;;;;;;;;;;
2023/03/23 01:29:29;;;;;;;7.90;3.90;;;;;;;11.28;82.55;100237.25;6029610;19;20034;-76
2023/03/23 01:31:53;;;;;;;9.93;3.92;;;;;;;11.24;83.04;100233.94;6074093;19;20014;-76
2023/03/23 01:36:57;;;;;;;7.72;3.40;;;;;;;11.24;82.74;100241.81;5964154;19;20019;-75
2023/03/23 01:39:07;;;;;;;6.40;3.33;;;;;;;11.25;82.77;100242.69;6048143;19;20114;-76
2023/03/23 01:41:25;;;;;;;8.85;3.88;;;;;;;11.32;82.56;100230.88;6099878;19;20031;-76
2023/03/23 01:43:56;;;;;;;8.75;3.35;;;;;;;11.37;82.35;100221.84;6098770;19;20690;-76
2023/03/23 01:46:06;;;;;;;8.40;3.22;;;;;;;11.31;82.77;100230.03;6059000;19;20015;-75
2023/03/23 01:48:23;;;;;;;7.70;3.20;;;;;;;11.32;82.86;100223.88;6081525;19;20007;-76
2023/03/23 01:50:51;;;;;;;8.50;3.20;;;;;;;11.31;82.87;100218.69;5968939;19;20010;-75
2023/03/23 01:53:02;;;;;;;7.93;3.40;;;;;;;11.35;82.52;100207.91;6060574;19;20035;-76
2023/03/23 01:55:18;;;;;;;7.10;3.25;;;;;;;11.28;82.94;100211.81;6083339;19;20021;-77
2023/03/23 01:57:29;;;;;;;6.13;3.33;;;;;;;11.26;83.20;100212.81;6077030;19;20561;-76
2023/03/23 01:59:44;;;;;;;6.88;2.80;;;;;;;11.32;82.78;100221.25;6099760;19;20007;-76
2023/03/23 02:01:53;;;;;;;6.80;3.00;;;;;;;11.31;82.69;100211.63;6076378;19;20086;-76
2023/03/23 02:04:01;;;;;;;8.25;3.22;;;;;;;11.21;83.24;100213.06;6097856;19;20014;-76
2023/03/23 02:06:18;;;;;;;5.72;3.30;;;;;;;11.25;83.27;100224.28;6074428;19;20014;-76
2023/03/23 02:08:30;;;;;;;9.32;3.60;;;;;;;11.21;83.63;100221.78;6041764;19;20018;-75
2023/03/23 02:10:38;;;;;;;6.35;3.15;;;;;;;11.25;83.49;100219.88;6064198;19;20496;-76
2023/03/23 02:12:43;;;;;;;6.80;3.13;;;;;;;11.23;83.35;100219.09;6076943;19;20007;-75
2023/03/23 02:14:57;;;;;;;5.82;3.28;;;;;;;11.25;83.65;100221.66;6095618;19;20133;-76
2023/03/23 02:17:11;;;;;;;5.72;2.97;;;;;;;11.20;83.88;100225.34;6073445;19;20014;-76
2023/03/23 02:19:46;;;;;;;7.30;3.47;;;;;;;11.31;83.33;100235.31;6076823;19;20018;-76
2023/03/23 02:22:12;;;;;;;7.68;3.72;;;;;;;11.29;83.39;100224.00;6078708;19;20010;-76
2023/03/23 02:24:55;;;;;;;8.10;3.72;;;;;;;11.35;83.14;100214.97;6075636;19;20018;-75
2023/03/23 02:27:08;;;;;;;7.70;3.65;;;;;;;11.35;82.89;100218.44;6086585;19;20343;-76
2023/03/23 02:29:47;;;;;;;9.65;3.65;;;;;;;11.33;83.19;100217.66;6076935;19;20710;-76
2023/03/23 02:32:14;;;;;;;6.68;3.38;;;;;;;11.30;83.36;100214.38;6087788;19;20014;-76
2023/03/23 02:34:29;;;;;;;7.63;3.22;;;;;;;11.35;82.76;100202.66;6089818;19;20010;-75
2023/03/23 02:36:43;;;;;;;8.68;3.08;;;;;;;11.33;82.95;100215.03;6075150;19;20614;-76
2023/03/23 02:38:58;;;;;;;6.18;2.80;;;;;;;11.31;83.33;100211.63;6085941;19;20016;-76
2023/03/23 02:41:08;;;;;;;7.93;3.42;;;;;;;11.30;83.27;100211.75;6075177;19;20094;-76
2023/03/23 02:43:18;;;;;;;7.60;2.97;;;;;;;11.31;83.03;100211.63;6073266;19;20053;-76
2023/03/23 02:45:27;;;;;;;6.32;3.00;;;;;;;11.32;83.33;100207.22;6088749;19;20499;-76
2023/03/23 02:47:33;;;;;;;8.73;3.42;;;;;;;11.31;83.43;100206.38;6090966;19;20604;-75
2023/03/23 02:49:45;;;;;;;4.53;2.88;;;;;;;11.29;83.73;100218.75;6106650;19;20354;-76
2023/03/23 02:51:55;;;;;;;7.82;3.33;;;;;;;11.29;83.71;100210.88;6085060;19;20110;-76
2023/03/23 02:54:01;;;;;;;10.18;3.40;;;;;;;11.34;82.94;100202.72;6109563;19;20426;-76
2023/03/23 02:56:11;;;;;;;8.70;2.90;;;;;;;11.30;83.12;100206.47;6070911;19;20014;-75
2023/03/23 02:58:18;;;;;;;7.72;2.67;;;;;;;11.40;82.60;100195.38;6091542;19;20398;-75
2023/03/23 03:00:31;;;;;;;7.40;3.30;;;;;;;11.35;83.05;100194.78;6088983;19;20036;-76
2023/03/23 03:02:40;;;;;;;10.32;3.38;;;;;;;11.44;82.61;100214.47;6119224;19;20026;-75
2023/03/23 03:04:58;;;;;;;7.70;3.22;;;;;;;11.41;82.74;100207.56;6124663;19;20023;-76
2023/03/23 03:07:15;;;;;;;5.78;3.00;;;;;;;11.37;82.95;100197.31;6073368;19;20006;-76
2023/03/23 03:09:42;;;;;;;5.93;2.97;;;;;;;11.41;82.87;100191.78;6115870;19;20042;-77
2023/03/23 03:11:53;;;;;;;6.53;2.80;;;;;;;11.35;83.07;100192.13;6110800;19;20014;-76
2023/03/23 03:14:03;;;;;;;6.28;3.08;;;;;;;11.31;83.61;100206.38;6097739;19;20035;-77
2023/03/23 03:16:15;;;;;;;8.35;3.33;;;;;;;11.23;84.32;100211.19;6076656;19;20039;-76
2023/03/23 03:18:25;;;;;;;8.00;3.03;;;;;;;11.17;86.19;100206.28;6093888;19;20010;-77
2023/03/23 03:33:54;;;;;;;;;;;;;;;;;;;;;
2023/03/23 03:55:59;;;;;;;7.30;2.92;;;;;;;10.68;88.98;100217.53;5970796;19;20130;-77
2023/03/23 03:58:57;;;;;;;6.15;3.08;;;;;;;10.77;88.14;100211.00;6025240;19;20102;-77
2023/03/23 04:04:45;;;;;;;7.53;2.92;;;;;;;10.80;87.75;100215.25;5958436;19;20025;-77
2023/03/23 04:29:57;;;;;;;;;;;;;;;10.89;85.68;100226.09;5977164;19;20570;-76
2023/03/23 04:47:09;;;;;;;9.45;2.72;;;;;;;10.68;86.97;100275.34;5868651;19;20030;-76
2023/03/23 05:56:38;;;;;;;14.50;4.80;;;;;;;10.29;90.00;100320.19;6121616;19;20536;-75
2023/03/23 05:59:40;;;;;;;;;;;;;;;;;;;;;
2023/03/23 06:54:27;;;;;;;10.73;3.45;;;;;;;10.43;85.80;100377.34;6026383;19;20790;-75
2023/03/23 07:05:36;;;;;;;8.93;3.67;;;;;;;10.49;85.56;100367.38;6047514;19;20018;-75
2023/03/23 07:08:10;;;;;;;12.73;3.22;;;;;;;10.46;86.16;100388.53;6073477;19;20093;-75
2023/03/23 07:13:22;;;;;;;11.23;3.30;;;;;;;10.48;85.66;100384.06;6094994;19;20018;-74
2023/03/23 07:18:15;;;;;;;15.80;3.53;;;;;;;10.46;85.06;100391.16;6018237;19;20015;-74
2023/03/23 07:20:37;;;;;;;15.73;3.38;;;;;;;10.45;85.76;100397.34;6009462;19;20044;-75
2023/03/23 07:23:11;;;;;;;15.57;3.70;;;;;;;10.53;85.78;100394.34;6078646;19;20023;-74
2023/03/23 07:25:41;;;;;;;9.02;3.35;;;;;;;10.57;85.63;100397.69;6050128;19;20022;-74
2023/03/23 07:28:10;;;;;;;11.65;4.45;;;;;;;10.57;85.51;100395.06;6051203;19;20014;-74
2023/03/23 07:30:29;;;;;;;9.95;4.10;;;;;;;10.49;86.22;100404.16;6067111;19;20090;-74
2023/03/23 07:32:41;;;;;;;14.18;4.07;;;;;;;10.46;86.00;100401.66;6017848;19;20035;-74
2023/03/23 07:34:52;;;;;;;10.80;3.80;;;;;;;10.42;86.21;100402.72;6070635;19;20014;-75
2023/03/23 07:37:07;;;;;;;15.38;3.78;;;;;;;10.41;85.22;100387.91;6074883;19;20007;-76
2023/03/23 07:39:30;;;;;;;8.27;3.00;;;;;;;10.54;85.63;100399.53;6062105;19;20078;-76
2023/03/23 07:46:57;;;;;;;17.13;3.53;;;;;;;11.15;83.89;100400.09;6091679;19;20006;-75
2023/03/23 07:49:11;;;;;;;11.82;3.42;;;;;;;11.16;83.99;100396.53;6076866;19;20770;-75
2023/03/23 07:51:49;;;;;;;14.38;3.22;;;;;;;11.11;83.76;100411.69;6068413;19;20018;-74
2023/03/23 07:54:03;;;;;;;13.60;3.45;;;;;;;10.98;83.74;100409.69;6055833;19;20038;-74
2023/03/23 07:56:23;;;;;;;14.27;3.70;;;;;;;10.98;83.49;100407.06;6060361;19;20033;-74
2023/03/23 07:59:15;;;;;;;9.45;2.75;;;;;;;10.88;83.91;100415.47;5984851;19;20022;-76
2023/03/23 09:27:23;;;;;;;14.10;3.03;;;;;;;12.96;72.92;100448.44;6052206;19;20017;-75
2023/03/23 09:29:40;;;;;;;15.55;3.10;;;;;;;13.15;71.45;100464.91;6099858;19;20077;-75
2023/03/23 09:32:03;;;;;;;17.83;3.63;;;;;;;13.10;70.97;100456.41;6094109;19;20810;-76
2023/03/23 09:34:35;;;;;;;14.88;3.28;;;;;;;13.01;71.24;100462.22;6082637;19;20324;-76
2023/03/23 09:36:48;;;;;;;16.33;3.17;;;;;;;13.04;71.73;100469.97;6085736;19;20010;-75
2023/03/23 09:39:13;;;;;;;15.68;3.90;;;;;;;13.28;70.54;100467.72;6100585;19;20306;-75
2023/03/23 09:41:54;;;;;;;15.77;3.70;;;;;;;13.05;71.49;100473.44;6100085;19;20031;-76
2023/03/23 09:44:11;;;;;;;12.05;3.05;;;;;;;13.49;70.50;100473.56;6097198;19;20045;-79
2023/03/23 09:46:34;;;;;;;9.13;2.75;;;;;;;13.07;69.78;100498.78;6057406;19;20250;-76
2023/03/23 09:48:53;;;;;;;20.05;4.05;;;;;;;13.21;70.58;100473.41;6100948;19;20037;-76
2023/03/23 09:51:48;;;;;;;12.85;3.55;;;;;;;13.42;70.10;100485.41;6059279;19;20705;-76
2023/03/23 09:54:22;;;;;;;;;;;;;;;13.55;70.05;100488.19;6047314;19;20037;-77
2023/03/23 09:56:57;;;;;;;14.88;2.85;;;;;;;12.85;70.45;100503.56;6056127;19;19929;-76
2023/03/23 09:59:24;;;;;;;8.70;2.88;;;;;;;12.79;70.40;100491.56;6096833;19;20010;-77
2023/03/23 10:01:35;;;;;;;13.05;3.47;;;;;;;12.85;69.73;100500.91;6118615;19;20025;-77
2023/03/23 10:03:45;;;;;;;12.55;3.65;;;;;;;12.98;70.28;100495.81;6125803;19;20506;-77
2023/03/23 10:05:52;;;;;;;16.70;3.78;;;;;;;13.09;70.25;100491.66;6097309;19;20018;-78
2023/03/23 10:08:02;;;;;;;17.15;3.55;;;;;;;12.98;70.99;100496.69;6084687;19;20015;-78
2023/03/23 10:10:17;;;;;;;13.00;3.63;;;;;;;13.54;69.84;100503.19;6100064;19;20011;-78
2023/03/23 10:12:36;;;;;;;14.77;3.65;;;;;;;13.77;68.77;100508.88;6052743;19;20042;-77
2023/03/23 10:14:59;;;;;;;19.38;3.90;;;;;;;13.40;69.46;100511.03;6076168;19;20590;-77
2023/03/23 10:17:21;;;;;;;20.17;4.18;;;;;;;13.86;68.15;100513.63;6101072;19;20693;-77
2023/03/23 10:19:42;;;;;;;12.50;3.58;;;;;;;14.19;67.32;100510.78;6075522;19;20028;-77
2023/03/23 10:21:57;;;;;;;17.58;3.65;;;;;;;13.92;67.24;100501.84;6098212;19;20293;-78
2023/03/23 10:24:04;;;;;;;11.85;3.50;;;;;;;13.92;67.04;100513.25;6074155;19;20765;-77
2023/03/23 10:26:16;;;;;;;17.17;3.83;;;;;;;13.83;65.99;100514.66;6095147;19;20029;-77
2023/03/23 10:28:39;;;;;;;14.25;3.42;;;;;;;13.42;66.62;100519.72;6095636;19;20011;-77
2023/03/23 10:30:56;;;;;;;17.70;3.67;;;;;;;13.38;67.25;100515.56;6099751;19;20086;-78
2023/03/23 10:33:09;;;;;;;16.67;3.70;;;;;;;13.21;67.17;100513.00;6077716;19;20785;-76
2023/03/23 10:35:21;;;;;;;17.90;3.35;;;;;;;13.23;67.87;100509.34;6100489;19;20153;-76
2023/03/23 10:37:29;;;;;;;21.98;4.95;;;;;;;13.20;66.60;100511.31;6099558;19;20108;-76
2023/03/23 10:39:41;;;;;;;22.77;4.45;;;;;;;13.33;66.59;100500.00;6079713;19;20014;-77
2023/03/23 10:41:46;;;;;;;24.05;4.30;;;;;;;13.37;66.13;100511.22;6100895;19;20375;-77
2023/03/23 10:43:54;;;;;;;11.23;2.95;;;;;;;13.36;67.99;100517.44;6096654;19;20015;-76
2023/03/23 10:46:11;;;;;;;14.82;3.70;;;;;;;13.07;66.49;100519.06;6100785;19;20727;-77
2023/03/23 10:48:38;;;;;;;18.70;3.72;;;;;;;13.16;67.03;100526.44;6097244;19;20046;-76
2023/03/23 10:50:50;;;;;;;19.33;4.35;;;;;;;13.16;67.18;100518.53;6101268;19;20010;-77
2023/03/23 10:53:00;;;;;;;13.43;3.35;;;;;;;13.29;67.55;100526.63;6098720;19;20010;-77
2023/03/23 10:55:10;;;;;;;12.73;3.40;;;;;;;13.32;66.78;100510.63;6097325;19;20086;-78
2023/03/23 10:57:26;;;;;;;15.32;4.38;;;;;;;13.63;67.08;100501.78;6077699;19;20006;-78
2023/03/23 10:59:34;;;;;;;15.48;5.78;;;;;;;13.80;64.76;100503.44;6095894;19;20018;-78
2023/03/23 11:01:39;;;;;;;16.83;4.78;;;;;;;13.44;65.39;100502.00;6100942;19;20025;-77
2023/03/23 11:03:48;;;;;;;17.33;3.55;;;;;;;13.29;64.55;100505.53;6100857;19;20643;-77
2023/03/23 11:05:59;;;;;;;11.25;4.30;;;;;;;14.12;64.91;100506.78;6095378;19;20019;-78
2023/03/23 11:08:04;;;;;;;16.92;3.67;;;;;;;14.66;64.07;100499.06;6074732;19;20771;-77
2023/03/23 11:10:23;;;;;;;20.92;5.25;;;;;;;14.59;63.25;100503.06;6094432;19;20006;-78
2023/03/23 11:12:38;;;;;;;21.00;4.60;;;;;;;14.78;63.75;100509.81;6074540;19;20025;-78
2023/03/23 11:14:47;;;;;;;15.13;4.38;;;;;;;14.93;62.11;100507.06;6071254;19;20583;-76
2023/03/23 11:16:55;;;;;;;14.98;3.70;;;;;;;15.17;62.84;100510.88;6096318;19;20014;-77
2023/03/23 11:19:16;;;;;;;14.13;3.60;;;;;;;15.13;61.35;100508.41;6095994;19;20781;-75
2023/03/23 11:21:28;;;;;;;19.77;3.83;;;;;;;14.98;61.18;100520.00;6093586;19;20007;-76
2023/03/23 11:23:47;;;;;;;14.43;3.40;;;;;;;14.90;61.13;100509.91;6099065;19;20019;-76
2023/03/23 11:26:20;;;;;;;11.98;2.78;;;;;;;14.85;61.31;100503.19;6069712;19;20022;-76
2023/03/23 11:28:33;;;;;;;8.63;3.30;;;;;;;14.51;62.48;100500.00;6091739;19;20010;-76
2023/03/23 11:30:43;;;;;;;17.33;3.30;;;;;;;14.91;62.70;100501.00;6096826;19;20014;-77
2023/03/23 11:32:52;;;;;;;11.10;3.40;;;;;;;15.11;62.35;100498.84;6048566;19;20117;-75
2023/03/23 11:35:03;;;;;;;14.73;3.88;;;;;;;14.92;61.59;100492.09;6074714;19;20007;-77
2023/03/23 11:37:31;;;;;;;14.88;3.47;;;;;;;15.16;61.56;100496.75;6082847;19;20008;-74
2023/03/23 11:39:52;;;;;;;15.95;3.40;;;;;;;15.56;60.72;100491.47;6096775;19;20010;-75
2023/03/23 11:42:00;;;;;;;18.38;3.80;;;;;;;15.83;60.78;100490.63;6099938;19;20022;-75
2023/03/23 11:44:20;;;;;;;13.40;3.13;;;;;;;16.08;59.67;100493.28;6093056;19;20221;-75
2023/03/23 11:46:42;;;;;;;13.77;3.88;;;;;;;15.37;60.26;100490.06;6086785;19;20082;-75
2023/03/23 11:48:56;;;;;;;13.63;2.80;;;;;;;15.88;59.91;100504.41;6076356;19;20706;-75
2023/03/23 11:51:05;;;;;;;9.82;3.75;;;;;;;15.21;59.11;100507.06;6098652;19;20498;-78
2023/03/23 11:53:20;;;;;;;13.80;3.90;;;;;;;15.05;60.86;100505.41;6100047;19;20041;-77
2023/03/23 11:55:29;;;;;;;12.52;3.35;;;;;;;14.93;60.41;100517.63;6101258;19;20020;-77
2023/03/23 11:57:40;;;;;;;10.35;3.00;;;;;;;14.78;61.61;100512.47;6077552;19;20503;-77
2023/03/23 11:59:49;;;;;;;10.95;3.38;;;;;;;14.49;61.89;100515.94;6099720;19;20007;-77
2023/03/23 12:02:06;;;;;;;12.13;3.25;;;;;;;14.61;61.93;100508.22;6102163;19;20010;-76
2023/03/23 12:04:59;;;;;;;10.32;3.22;;;;;;;14.43;60.44;100520.78;6090494;19;20098;-76
2023/03/23 12:07:48;;;;;;;9.60;3.03;;;;;;;14.55;60.89;100503.31;6109687;19;20007;-76
2023/03/23 12:10:05;;;;;;;12.80;4.03;;;;;;;14.77;60.07;100516.91;6115479;19;20038;-76
2023/03/23 12:12:20;;;;;;;9.52;2.88;;;;;;;14.57;60.28;100512.88;6078071;19;20085;-76
2023/03/23 12:14:41;;;;;;;9.63;2.53;;;;;;;14.69;60.64;100505.94;6100911;19;20328;-76
2023/03/23 12:17:24;;;;;;;11.07;3.20;;;;;;;15.00;59.28;100506.66;6080454;19;20003;-76
2023/03/23 12:19:47;;;;;;;16.25;4.18;;;;;;;15.15;59.53;100505.66;6130437;19;20010;-76
2023/03/23 12:22:03;;;;;;;11.65;3.55;;;;;;;15.03;59.51;100503.81;6125839;19;20039;-77
2023/03/23 12:24:25;;;;;;;19.02;3.65;;;;;;;14.78;60.39;100500.09;6128810;19;20007;-77
2023/03/23 12:26:37;;;;;;;14.27;3.78;;;;;;;14.74;61.20;100501.22;6123438;19;25151;-75
2023/03/23 12:28:57;;;;;;;13.57;3.63;;;;;;;14.72;61.61;100495.19;6119444;19;20026;-78
2023/03/23 12:31:10;;;;;;;11.82;3.45;;;;;;;14.68;61.92;100501.63;6117448;19;20306;-77
2023/03/23 12:33:37;;;;;;;15.63;4.05;;;;;;;14.56;61.71;100502.38;6118138;19;20063;-76
2023/03/23 12:35:56;;;;;;;11.25;3.45;;;;;;;14.83;62.09;100492.72;6092789;19;20006;-76
2023/03/23 12:38:34;;;;;;;15.95;4.10;;;;;;;14.78;62.39;100484.22;6105660;19;20011;-76
2023/03/23 12:40:54;;;;;;;14.07;3.22;;;;;;;14.84;62.11;100481.16;6058348;19;20013;-76
2023/03/23 12:43:08;;;;;;;10.25;2.85;;;;;;;14.71;62.02;100491.69;6078836;19;20034;-76
2023/03/23 12:45:24;;;;;;;11.48;3.63;;;;;;;14.66;62.94;100471.75;6098203;19;20007;-76
2023/03/23 12:47:40;;;;;;;12.85;3.42;;;;;;;14.85;62.66;100477.59;6099843;19;20007;-77
2023/03/23 12:49:55;;;;;;;9.20;3.40;;;;;;;14.56;61.57;100479.44;6097912;19;20011;-76
2023/03/23 12:52:06;;;;;;;15.50;3.22;;;;;;;14.74;61.92;100492.44;6096017;19;20015;-76
2023/03/23 12:54:22;;;;;;;8.80;2.60;;;;;;;14.70;62.71;100489.16;6089614;19;20011;-76
2023/03/23 12:56:35;;;;;;;12.73;3.20;;;;;;;14.74;63.60;100485.34;6074883;19;20013;-77
2023/03/23 12:58:46;;;;;;;12.75;3.47;;;;;;;14.47;62.59;100490.56;6098465;19;20014;-77
2023/03/23 13:01:03;;;;;;;12.82;3.78;;;;;;;14.58;62.85;100503.97;6077442;19;20023;-78
2023/03/23 13:03:20;;;;;;;13.45;3.30;;;;;;;14.57;63.82;100502.28;6075611;19;20556;-76
2023/03/23 13:05:54;;;;;;;9.43;3.00;;;;;;;14.52;63.81;100527.28;6099840;19;20010;-76
2023/03/23 13:08:04;;;;;;;10.45;3.40;;;;;;;14.35;61.75;100510.69;6097220;19;20034;-78
2023/03/23 13:10:21;;;;;;;10.70;3.80;;;;;;;14.45;61.82;100535.56;6089446;19;20014;-75
2023/03/23 13:12:39;;;;;;;18.17;4.60;;;;;;;14.53;61.32;100505.22;6090281;19;20568;-76
2023/03/23 13:14:55;;;;;;;11.68;3.33;;;;;;;14.71;60.26;100490.84;6091362;19;20118;-76
2023/03/23 13:17:10;;;;;;;14.43;3.10;;;;;;;14.77;60.10;100490.47;6096676;19;20002;-76
2023/03/23 13:19:22;;;;;;;15.93;3.67;;;;;;;14.69;60.25;100503.28;6096596;19;20439;-76
2023/03/23 13:21:35;;;;;;;12.25;3.15;;;;;;;14.73;61.43;100515.41;6096170;19;20022;-76
2023/03/23 13:23:45;;;;;;;11.32;3.30;;;;;;;14.57;61.76;100509.38;6094985;19;20010;-75
2023/03/23 13:25:59;;;;;;;12.73;3.28;;;;;;;14.66;60.80;100506.97;6097414;19;20010;-77
2023/03/23 13:28:04;;;;;;;8.55;2.30;;;;;;;15.05;60.96;100504.56;6074090;19;20361;-77
2023/03/23 13:30:24;;;;;;;14.57;2.97;;;;;;;15.00;60.38;100506.66;6096188;19;20007;-76
2023/03/23 13:32:38;;;;;;;11.82;2.90;;;;;;;15.35;59.79;100521.09;6068601;19;20007;-78
2023/03/23 13:34:58;;;;;;;20.85;4.18;;;;;;;15.50;59.68;100516.56;6095348;19;20015;-77
2023/03/23 13:37:12;;;;;;;29.40;4.18;;;;;;;15.61;59.04;100509.72;6095820;19;20019;-76
2023/03/23 13:39:26;;;;;;;12.38;3.67;;;;;;;15.20;59.29;100514.16;6093637;19;20007;-77
2023/03/23 13:41:33;;;;;;;19.45;4.53;;;;;;;14.91;59.28;100516.88;6097980;19;20015;-76
2023/03/23 13:43:45;;;;;;;14.48;5.20;;;;;;;14.90;60.42;100517.84;6102211;19;20014;-77
2023/03/23 13:45:51;;;;;;;13.32;3.40;;;;;;;14.84;60.56;100517.38;6103199;19;20017;-77
2023/03/23 13:48:07;;;;;;;17.25;3.53;;;;;;;14.70;61.01;100510.31;6100723;19;20024;-77
2023/03/23 13:50:17;;;;;;;12.48;3.08;;;;;;;14.85;60.50;100497.88;6098926;19;20021;-78
2023/03/23 13:52:40;;;;;;;16.33;3.88;;;;;;;15.00;60.17;100496.91;6100927;19;20651;-76
2023/03/23 13:54:47;;;;;;;16.80;3.83;;;;;;;15.06;59.80;100485.06;6102443;19;20693;-77
2023/03/23 13:56:57;;;;;;;13.15;3.20;;;;;;;15.17;60.37;100492.34;6103565;19;20094;-77
2023/03/23 13:59:08;;;;;;;;;;;;;;;14.86;58.57;100496.97;6103140;19;20014;-76
2023/03/23 14:01:21;;;;;;;17.20;3.50;;;;;;;14.95;59.75;100488.41;6078768;19;19930;-76
2023/03/23 14:03:29;;;;;;;15.85;4.15;;;;;;;15.05;60.18;100484.22;6104688;19;20006;-77
2023/03/23 14:05:40;;;;;;;12.13;3.60;;;;;;;15.39;58.78;100497.91;6103175;19;20014;-78
2023/03/23 14:08:01;;;;;;;13.55;3.30;;;;;;;15.39;58.16;100489.97;6103539;19;20207;-78
2023/03/23 14:10:09;;;;;;;15.65;4.85;;;;;;;15.39;57.70;100486.47;6103287;19;20269;-77
2023/03/23 14:12:20;;;;;;;14.82;3.97;;;;;;;15.30;58.73;100485.28;6100093;19;20317;-77
2023/03/23 14:14:31;;;;;;;17.05;4.30;;;;;;;15.08;59.63;100504.34;6101794;19;20002;-78
2023/03/23 14:16:42;;;;;;;16.73;3.90;;;;;;;14.86;60.36;100504.91;6102694;19;20739;-77
2023/03/23 14:18:55;;;;;;;12.27;4.22;;;;;;;14.64;61.29;100485.09;6102926;19;20093;-78
2023/03/23 14:21:01;;;;;;;16.95;3.72;;;;;;;14.79;60.40;100463.91;6104756;19;20011;-78
2023/03/23 14:23:20;;;;;;;16.42;3.80;;;;;;;15.10;60.63;100455.66;6097511;19;20006;-77
2023/03/23 14:25:30;;;;;;;18.88;4.05;;;;;;;15.04;60.65;100448.13;6079213;19;20023;-78
2023/03/23 14:27:39;;;;;;;18.42;3.90;;;;;;;15.27;60.14;100451.06;6102194;19;20006;-78
2023/03/23 14:29:45;;;;;;;14.73;3.60;;;;;;;15.49;58.48;100418.72;6102176;19;20010;-78
2023/03/23 14:31:56;;;;;;;14.25;3.83;;;;;;;15.74;59.18;100418.75;6101799;19;20023;-77
2023/03/23 14:34:07;;;;;;;18.15;4.00;;;;;;;15.53;58.56;100412.25;6075675;19;20090;-78
2023/03/23 14:36:14;;;;;;;15.82;3.42;;;;;;;15.54;58.52;100408.66;6076526;19;20121;-77
2023/03/23 14:38:24;;;;;;;11.48;3.55;;;;;;;15.85;58.51;100418.03;6096493;19;20014;-77
2023/03/23 14:40:31;;;;;;;19.33;3.60;;;;;;;15.66;58.10;100399.00;6099978;19;20134;-78
2023/03/23 14:42:38;;;;;;;15.25;3.38;;;;;;;15.46;57.71;100410.97;6101270;19;20294;-77
2023/03/23 14:44:50;;;;;;;19.10;3.80;;;;;;;15.47;58.04;100410.88;6100456;19;20018;-77
2023/03/23 14:46:57;;;;;;;14.73;3.35;;;;;;;15.27;59.73;100411.34;6097979;19;20007;-77
2023/03/23 14:49:06;;;;;;;14.07;3.47;;;;;;;15.36;59.89;100427.47;6101747;19;20019;-77
2023/03/23 14:51:20;;;;;;;12.98;3.25;;;;;;;15.63;60.64;100415.97;6103217;19;20652;-77
2023/03/23 14:53:34;;;;;;;10.50;2.92;;;;;;;15.75;59.99;100427.56;6100035;19;20033;-76
2023/03/23 14:55:39;;;;;;;11.38;3.63;;;;;;;15.89;60.33;100429.25;6079738;19;20327;-77
2023/03/23 14:57:50;;;;;;;12.77;3.30;;;;;;;16.03;60.28;100431.78;6101187;19;20010;-78
2023/03/23 14:59:55;;;;;;;17.77;3.58;;;;;;;15.75;60.56;100430.22;6102543;19;20023;-77
2023/03/23 15:02:04;;;;;;;12.85;3.08;;;;;;;15.71;59.01;100424.25;6097565;19;20035;-77
2023/03/23 15:04:16;;;;;;;17.67;3.72;;;;;;;15.70;59.63;100411.97;6108174;19;20006;-81
2023/03/23 15:06:26;;;;;;;15.98;3.60;;;;;;;15.61;60.46;100409.91;6106216;19;20003;-81
2023/03/23 15:08:36;;;;;;;14.13;3.28;;;;;;;15.56;60.66;100417.31;6083823;19;20556;-81
2023/03/23 15:10:42;;;;;;;11.23;3.35;;;;;;;15.46;61.18;100411.81;6101095;19;20015;-81
2023/03/23 15:12:49;;;;;;;18.35;4.93;;;;;;;15.60;61.37;100387.03;6100041;19;20572;-80
2023/03/23 15:14:56;;;;;;;18.55;4.40;;;;;;;15.55;61.54;100392.66;6103040;19;20010;-79
2023/03/23 15:17:04;;;;;;;13.98;3.33;;;;;;;15.64;60.84;100385.03;6105261;19;20007;-85
2023/03/23 15:19:15;;;;;;;18.38;4.25;;;;;;;15.25;60.52;100376.22;6104868;19;20655;-82
2023/03/23 15:21:27;;;;;;;18.02;3.92;;;;;;;15.60;59.85;100376.44;6102894;19;20002;-80
2023/03/23 15:23:35;;;;;;;14.32;4.07;;;;;;;15.61;59.49;100364.88;6104204;19;20013;-79
2023/03/23 15:25:41;;;;;;;17.90;3.95;;;;;;;15.70;58.96;100374.06;6105822;19;20018;-82
2023/03/23 15:27:52;;;;;;;19.77;3.75;;;;;;;15.67;58.78;100379.53;6112981;19;20106;-84
2023/03/23 15:30:02;;;;;;;19.13;3.92;;;;;;;15.82;58.70;100377.63;6116370;19;20014;-81
2023/03/23 15:32:07;;;;;;;20.73;4.25;;;;;;;15.79;57.52;100376.88;6125267;19;20138;-82
2023/03/23 15:34:20;;;;;;;17.70;4.10;;;;;;;15.75;57.78;100388.66;6105861;19;20031;-81
2023/03/23 15:36:24;;;;;;;15.18;3.40;;;;;;;15.80;57.43;100404.25;6131989;19;20050;-82
2023/03/23 15:38:36;;;;;;;18.60;3.40;;;;;;;15.86;57.45;100384.44;6134818;19;21037;-81
2023/03/23 15:40:45;;;;;;;13.35;3.63;;;;;;;15.58;57.76;100384.47;6125675;19;20021;-82
2023/03/23 15:42:50;;;;;;;17.25;3.60;;;;;;;15.50;57.94;100376.22;6124274;19;20014;-82
2023/03/23 15:45:01;;;;;;;16.40;3.90;;;;;;;15.43;58.92;100387.34;6125142;19;20015;-82
2023/03/23 15:47:17;;;;;;;17.00;4.63;;;;;;;15.50;58.38;100380.69;6120958;19;20386;-81
2023/03/23 15:49:27;;;;;;;13.75;3.60;;;;;;;15.53;58.45;100377.81;6114660;19;20011;-82
2023/03/23 15:51:34;;;;;;;18.98;3.47;;;;;;;15.48;58.65;100386.09;6090906;19;20014;-80
2023/03/23 15:53:43;;;;;;;15.10;3.20;;;;;;;15.30;59.30;100379.41;6083346;19;20014;-81